Data for 03/23/2005

Time Sea-Level Adjusted Pressure Absolute Pressure Temperature Relative Humidity Dew Point   
(mb) (inHg) (mb) (inHg) (C) (F) (%) (C) (F)
00:05 1007 29.74 836 24.69 -1.9 28.6 95 -2.6 27.3
00:10 1007 29.74 836 24.69 -2 28.4 96 -2.6 27.3
00:15 1007 29.74 836 24.69 -2.1 28.3 95 -2.8 27
00:20 1007 29.74 836 24.69 -2.1 28.3 95 -2.7 27.1
00:25 1007 29.74 836 24.69 -2.1 28.2 95 -2.7 27.1
00:30 1007 29.74 836 24.69 -2.1 28.1 96 -2.8 27
00:35 1007 29.74 836 24.69 -2.1 28.3 96 -2.6 27.2
00:40 1007 29.74 836 24.69 -2 28.3 96 -2.7 27.2
00:45 1007 29.74 836 24.69 -2.1 28.2 95 -2.8 27
00:50 1007 29.74 836 24.69 -2.1 28.3 95 -2.8 26.9
00:55 1007 29.74 836 24.69 -2.2 28 95 -2.9 26.8
01:00 1007 29.74 837 24.72 -2.3 27.9 95 -3 26.6
01:05 1007 29.74 837 24.72 -2.5 27.6 95 -3.1 26.4
01:10 1007 29.74 836 24.69 -2.6 27.4 95 -3.3 26.1
01:15 1007 29.74 836 24.69 -2.6 27.3 94 -3.4 25.8
01:20 1007 29.74 836 24.69 -2.7 27.2 94 -3.5 25.7
01:25 1007 29.74 836 24.69 -2.8 26.9 95 -3.5 25.6
01:30 1007 29.74 837 24.72 -3 26.6 94 -3.8 25.1
01:35 1007 29.74 837 24.72 -3.2 26.2 94 -4 24.8
01:40 1007 29.74 836 24.69 -3.3 26 95 -4.1 24.7
01:45 1007 29.74 837 24.72 -3.3 26 95 -4 24.8
01:50 1007 29.74 837 24.72 -3.5 25.7 96 -4.1 24.6
01:55 1007 29.74 836 24.69 -3.6 25.5 96 -4.2 24.5
02:00 1007 29.74 836 24.69 -3.6 25.4 95 -4.3 24.3
02:05 1007 29.74 836 24.69 -3.8 25.2 95 -4.5 24
02:10 1007 29.74 836 24.69 -3.8 25.1 96 -4.4 24.1
02:15 1007 29.74 837 24.72 -3.8 25.2 95 -4.4 24.1
02:20 1007 29.74 837 24.72 -3.7 25.3 96 -4.3 24.3
02:25 1007 29.74 837 24.72 -3.8 25.2 96 -4.3 24.2
02:30 1007 29.74 837 24.72 -3.7 25.3 93 -4.6 23.7
02:35 1007 29.74 837 24.72 -3.7 25.3 94 -4.5 23.9
02:40 1007 29.74 837 24.72 -3.7 25.4 93 -4.6 23.8
02:45 1007 29.74 837 24.72 -3.6 25.4 92 -4.7 23.5
02:50 1007 29.74 837 24.72 -3.8 25.2 93 -4.7 23.5
02:55 1007 29.74 837 24.72 -3.8 25.1 94 -4.7 23.6
03:00 1007 29.74 837 24.72 -3.8 25.1 93 -4.9 23.3
03:05 1008 29.77 837 24.72 -3.9 25 93 -4.9 23.2
03:10 1007 29.74 837 24.72 -4 24.9 92 -5 22.9
03:15 1008 29.77 837 24.72 -4 24.9 92 -5 23
03:20 1008 29.77 837 24.72 -4 24.8 92 -5.1 22.9
03:25 1008 29.77 837 24.72 -4.1 24.7 92 -5.2 22.6
03:30 1008 29.77 837 24.72 -4.3 24.3 93 -5.3 22.5
03:35 1008 29.77 837 24.72 -4.3 24.3 92 -5.4 22.3
03:40 1008 29.77 837 24.72 -4.3 24.2 92 -5.4 22.3
03:45 1008 29.77 837 24.72 -4.4 24.1 91 -5.6 21.9
03:50 1008 29.77 837 24.72 -4.5 23.9 92 -5.6 21.8
03:55 1008 29.77 837 24.72 -4.6 23.6 91 -5.9 21.4
04:00 1008 29.77 837 24.72 -4.7 23.5 92 -5.8 21.5
04:05 1008 29.77 837 24.72 -4.7 23.6 91 -5.9 21.4
04:10 1008 29.77 837 24.72 -4.8 23.4 91 -6.1 21
04:15 1008 29.77 837 24.72 -5 23 91 -6.2 20.8
04:20 1008 29.77 837 24.72 -5.1 22.9 92 -6.2 20.9
04:25 1008 29.77 837 24.72 -5.2 22.6 91 -6.5 20.4
04:30 1008 29.77 837 24.72 -5.2 22.6 91 -6.4 20.4
04:35 1008 29.77 837 24.72 -5.3 22.5 91 -6.6 20.1
04:40 1008 29.77 837 24.72 -5.2 22.6 92 -6.3 20.6
04:45 1008 29.77 837 24.72 -5.1 22.8 91 -6.4 20.5
04:50 1008 29.77 837 24.72 -5.2 22.7 90 -6.5 20.2
04:55 1008 29.77 837 24.72 -5.4 22.3 90 -6.7 19.9
05:00 1008 29.77 837 24.72 -5.4 22.3 91 -6.7 20
05:05 1008 29.77 837 24.72 -5.3 22.4 90 -6.7 19.9
05:10 1008 29.77 837 24.72 -5.3 22.4 90 -6.7 19.9
05:15 1008 29.77 837 24.72 -5.2 22.6 90 -6.6 20.1
05:20 1008 29.77 837 24.72 -5.3 22.5 89 -6.8 19.8
05:25 1008 29.77 837 24.72 -5.4 22.3 89 -6.9 19.6
05:30 1008 29.77 837 24.72 -5.4 22.2 89 -7 19.4
05:35 1008 29.77 837 24.72 -5.5 22.2 89 -7 19.5
05:40 1008 29.77 837 24.72 -5.5 22 90 -6.9 19.5
05:45 1008 29.77 837 24.72 -5.6 22 90 -7 19.4
05:50 1008 29.77 837 24.72 -5.6 21.8 88 -7.3 18.9
05:55 1008 29.77 837 24.72 -5.6 21.9 89 -7.1 19.1
06:00 1008 29.77 837 24.72 -5.7 21.8 90 -7.1 19.2
06:05 1008 29.77 837 24.72 -5.6 22 89 -7.2 19.1
06:10 1008 29.77 837 24.72 -5.6 22 89 -7.2 19.1
06:15 1008 29.77 837 24.72 -5.7 21.8 89 -7.3 18.9
06:20 1008 29.77 837 24.72 -5.8 21.5 88 -7.5 18.6
06:25 1008 29.77 837 24.72 -5.7 21.7 87 -7.5 18.4
06:30 1008 29.77 837 24.72 -5.8 21.5 88 -7.5 18.6
06:35 1008 29.77 837 24.72 -5.8 21.6 89 -7.3 18.9
06:40 1008 29.77 837 24.72 -5.8 21.5 88 -7.5 18.4
06:45 1008 29.77 837 24.72 -5.9 21.4 88 -7.5 18.4
06:50 1008 29.77 837 24.72 -5.9 21.3 89 -7.5 18.4
06:55 1008 29.77 837 24.72 -6 21.3 87 -7.8 18
07:00 1008 29.77 837 24.72 -6.1 20.9 88 -7.8 18
07:05 1008 29.77 837 24.72 -6.1 21 89 -7.7 18.2
07:10 1008 29.77 837 24.72 -6 21.3 87 -7.8 18
07:15 1008 29.77 837 24.72 -6.1 21.1 89 -7.6 18.2
07:20 1008 29.77 837 24.72 -6.2 20.9 88 -7.8 18
07:25 1008 29.77 837 24.72 -6.1 21 89 -7.7 18.1
07:30 1008 29.77 837 24.72 -6.1 21.1 87 -7.9 17.9
07:35 1008 29.77 837 24.72 -6.3 20.7 88 -8 17.7
07:40 1008 29.77 837 24.72 -6.4 20.4 88 -8 17.5
07:45 1008 29.77 837 24.72 -6.3 20.6 87 -8.1 17.4
07:50 1008 29.77 837 24.72 -6.3 20.6 87 -8.2 17.3
07:55 1008 29.77 837 24.72 -6.4 20.5 88 -8.1 17.4
08:00 1008 29.77 837 24.72 -6.5 20.3 87 -8.3 17.1
08:05 1008 29.77 837 24.72 -6.6 20.1 88 -8.4 16.9
08:10 1008 29.77 837 24.72 -6.5 20.3 86 -8.4 16.9
08:15 1008 29.77 837 24.72 -6.4 20.4 87 -8.3 17.1
08:20 1008 29.77 837 24.72 -6.4 20.5 86 -8.3 17
08:25 1008 29.77 837 24.72 -6.4 20.6 86 -8.4 16.9
08:30 1008 29.77 837 24.72 -6.6 20.2 87 -8.4 16.8
08:35 1008 29.77 837 24.72 -6.4 20.4 86 -8.4 16.8
08:40 1008 29.77 837 24.72 -6.6 20.2 86 -8.5 16.7
08:45 1008 29.77 837 24.72 -6.4 20.5 84 -8.6 16.6
08:50 1008 29.77 838 24.75 -6.5 20.3 86 -8.4 16.8
08:55 1008 29.77 837 24.72 -6.5 20.4 85 -8.7 16.4
09:00 1008 29.77 838 24.75 -6.3 20.7 84 -8.5 16.7
09:05 1008 29.77 838 24.75 -6.2 20.8 83 -8.7 16.3
09:10 1008 29.77 838 24.75 -6.5 20.3 83 -8.9 16
09:15 1008 29.77 838 24.75 -6.3 20.6 84 -8.6 16.5
09:20 1009 29.8 838 24.75 -6.4 20.4 84 -8.7 16.4
09:25 1009 29.8 838 24.75 -6.3 20.7 83 -8.7 16.4
09:30 1008 29.77 838 24.75 -6.3 20.7 85 -8.4 16.8
09:35 1009 29.8 838 24.75 -6.2 20.9 85 -8.3 17
09:40 1009 29.8 838 24.75 -6.3 20.7 86 -8.3 17.1
09:45 1009 29.8 838 24.75 -6.1 21.1 86 -8.1 17.4
09:50 1009 29.8 838 24.75 -6 21.2 85 -8.2 17.3
09:55 1009 29.8 838 24.75 -6.2 20.8 88 -8 17.6
10:00 1009 29.8 838 24.75 -6.3 20.7 87 -8.1 17.5
10:05 1009 29.8 838 24.75 -6.6 20 90 -8 17.6
10:10 1009 29.8 838 24.75 -6.5 20.2 91 -7.8 18
10:15 1009 29.8 838 24.75 -6.6 20.2 89 -8.1 17.5
10:20 1009 29.8 838 24.75 -6.5 20.3 89 -8 17.7
10:25 1009 29.8 838 24.75 -6.5 20.3 89 -7.9 17.7
10:30 1008 29.77 838 24.75 -6.3 20.6 88 -8.1 17.5
10:35 1008 29.77 838 24.75 -6.3 20.7 89 -7.8 17.9
10:40 1009 29.8 838 24.75 -6.1 21.1 88 -7.7 18.2
10:45 1008 29.77 838 24.75 -5.6 21.9 87 -7.4 18.7
10:50 1008 29.77 838 24.75 -5.5 22.2 85 -7.6 18.4
10:55 1008 29.77 838 24.75 -5.5 22.2 83 -7.9 17.8
11:00 1008 29.77 838 24.75 -5.5 22 80 -8.4 16.8
11:05 1008 29.77 838 24.75 -5.6 22 80 -8.5 16.7
11:10 1008 29.77 838 24.75 -5.4 22.3 78 -8.6 16.6
11:15 1008 29.77 837 24.72 -5.4 22.2 79 -8.5 16.6
11:20 1008 29.77 838 24.75 -5.6 21.9 78 -8.9 16
11:25 1008 29.77 838 24.75 -5.6 21.8 77 -9 15.8
11:30 1008 29.77 838 24.75 -5.6 21.9 76 -9.2 15.4
11:35 1008 29.77 838 24.75 -5.3 22.5 74 -9.2 15.4
11:40 1008 29.77 838 24.75 -5.3 22.5 73 -9.4 15
11:45 1008 29.77 838 24.75 -5.2 22.6 72 -9.4 15
11:50 1008 29.77 838 24.75 -5 23 73 -9.2 15.5
11:55 1008 29.77 837 24.72 -5 22.9 73 -9.2 15.4
12:00 1008 29.77 837 24.72 -5.1 22.9 73 -9.1 15.6
12:05 1008 29.77 837 24.72 -5.1 22.9 73 -9.2 15.5
12:10 1008 29.77 837 24.72 -5 23 74 -8.9 15.9
12:15 1008 29.77 837 24.72 -5 23.1 76 -8.6 16.5
12:20 1008 29.77 837 24.72 -4.8 23.3 72 -9.1 15.7
12:25 1008 29.77 837 24.72 -4.8 23.3 72 -9.1 15.6
12:30 1008 29.77 837 24.72 -4.7 23.5 72 -9 15.8
12:35 1008 29.77 837 24.72 -4.7 23.5 73 -8.8 16.1
12:40 1008 29.77 837 24.72 -4.7 23.6 73 -8.9 16
12:45 1008 29.77 837 24.72 -4.9 23.2 74 -8.9 15.9
12:50 1008 29.77 837 24.72 -4.8 23.4 73 -9 15.9
12:55 1008 29.77 837 24.72 -4.5 23.9 71 -9 15.8
13:00 1008 29.77 837 24.72 -4.5 23.9 73 -8.6 16.6
13:05 1008 29.77 837 24.72 -4.4 24.1 71 -8.8 16.1
13:10 1008 29.77 837 24.72 -4.4 24.1 73 -8.6 16.5
13:15 1008 29.77 837 24.72 -4.6 23.8 73 -8.7 16.4
13:20 1008 29.77 837 24.72 -4.6 23.8 73 -8.7 16.3
13:25 1008 29.77 837 24.72 -4.5 23.9 73 -8.7 16.4
13:30 1008 29.77 837 24.72 -4.3 24.2 73 -8.5 16.6
13:35 1008 29.77 837 24.72 -4.1 24.7 71 -8.5 16.6
13:40 1008 29.77 837 24.72 -3.9 25 70 -8.6 16.5
13:45 1008 29.77 837 24.72 -4.2 24.5 71 -8.6 16.4
13:50 1008 29.77 837 24.72 -4.1 24.7 71 -8.6 16.5
13:55 1008 29.77 837 24.72 -4 24.9 71 -8.6 16.6
14:00 1008 29.77 837 24.72 -3.9 24.9 71 -8.5 16.6
14:05 1008 29.77 837 24.72 -3.9 25 71 -8.4 16.9
14:10 1008 29.77 837 24.72 -4.2 24.4 73 -8.4 16.9
14:15 1008 29.77 837 24.72 -4.1 24.6 73 -8.2 17.3
14:20 1008 29.77 837 24.72 -4.1 24.5 76 -7.7 18.1
14:25 1008 29.77 837 24.72 -3.9 24.9 74 -7.9 17.7
14:30 1008 29.77 837 24.72 -4.3 24.3 75 -8.1 17.3
14:35 1008 29.77 837 24.72 -4.5 23.9 77 -8 17.6
14:40 1008 29.77 837 24.72 -4.3 24.3 77 -7.6 18.2
14:45 1008 29.77 837 24.72 -4 24.8 75 -7.8 18
14:50 1008 29.77 838 24.75 -3.8 25.2 74 -7.8 17.9
14:55 1008 29.77 838 24.75 -3.8 25.2 78 -7.1 19.2
15:00 1008 29.77 838 24.75 -4 24.8 83 -6.4 20.5
15:05 1008 29.77 838 24.75 -3.6 25.6 81 -6.4 20.5
15:10 1008 29.77 838 24.75 -3.6 25.5 82 -6.2 20.8
15:15 1009 29.8 838 24.75 -4 24.8 85 -6.2 20.9
15:20 1009 29.8 838 24.75 -4 24.8 80 -6.9 19.5
15:25 1009 29.8 838 24.75 -4 24.7 79 -7.1 19.2
15:30 1009 29.8 838 24.75 -4.3 24.2 76 -7.9 17.8
15:35 1009 29.8 838 24.75 -4.3 24.2 82 -6.9 19.6
15:40 1009 29.8 838 24.75 -4.4 24.1 84 -6.8 19.8
15:45 1009 29.8 838 24.75 -4.3 24.3 83 -6.8 19.8
15:50 1009 29.8 838 24.75 -4 24.9 81 -6.7 19.9
15:55 1009 29.8 838 24.75 -3.8 25.1 81 -6.6 20
16:00 1009 29.8 838 24.75 -3.7 25.3 80 -6.7 19.9
16:05 1009 29.8 838 24.75 -3.7 25.4 81 -6.5 20.3
16:10 1009 29.8 838 24.75 -3.6 25.5 82 -6.3 20.6
16:15 1009 29.8 838 24.75 -3.6 25.5 81 -6.5 20.3
16:20 1009 29.8 838 24.75 -4 24.9 83 -6.4 20.5
16:25 1009 29.8 838 24.75 -4 24.8 83 -6.5 20.3
16:30 1009 29.8 838 24.75 -4.1 24.6 83 -6.6 20.2
16:35 1009 29.8 838 24.75 -4 24.7 84 -6.3 20.6
16:40 1009 29.8 839 24.78 -4 24.8 80 -6.9 19.5
16:45 1009 29.8 839 24.78 -4.5 23.9 83 -6.9 19.5
16:50 1009 29.8 839 24.78 -4.9 23.2 86 -6.9 19.6
16:55 1009 29.8 839 24.78 -5.3 22.5 89 -6.9 19.7
17:00 1009 29.8 839 24.78 -5.5 22 91 -6.8 19.8
17:05 1009 29.8 839 24.78 -5.6 21.9 90 -6.9 19.5
17:10 1009 29.8 839 24.78 -5.8 21.5 92 -6.9 19.6
17:15 1010 29.83 839 24.78 -6 21.2 92 -7.1 19.1
17:20 1009 29.8 839 24.78 -6.1 21 92 -7.2 19.1
17:25 1009 29.8 839 24.78 -6.1 21.1 92 -7.1 19.2
17:30 1009 29.8 839 24.78 -6.3 20.7 91 -7.5 18.5
17:35 1009 29.8 839 24.78 -6.3 20.6 92 -7.4 18.7
17:40 1010 29.83 839 24.78 -6.3 20.6 92 -7.5 18.5
17:45 1010 29.83 839 24.78 -6.5 20.4 90 -7.8 18
17:50 1010 29.83 839 24.78 -6.6 20.2 91 -7.8 18
17:55 1010 29.83 839 24.78 -6.7 20 92 -7.8 18
18:00 1010 29.83 839 24.78 -6.6 20 92 -7.7 18.1
18:05 1010 29.83 839 24.78 -6.7 20 92 -7.8 18
18:10 1010 29.83 839 24.78 -6.7 19.9 93 -7.7 18.2
18:15 1010 29.83 839 24.78 -6.7 20 92 -7.7 18.1
18:20 1010 29.83 839 24.78 -6.8 19.8 93 -7.8 18
18:25 1010 29.83 839 24.78 -6.9 19.6 93 -7.9 17.8
18:30 1010 29.83 839 24.78 -7 19.4 92 -8.1 17.4
18:35 1010 29.83 839 24.78 -7.1 19.2 92 -8.1 17.3
18:40 1010 29.83 839 24.78 -7.1 19.3 92 -8.1 17.3
18:45 1010 29.83 839 24.78 -7.1 19.2 91 -8.3 17.1
18:50 1010 29.83 839 24.78 -7.1 19.1 91 -8.3 17
18:55 1010 29.83 840 24.81 -7.2 19.1 91 -8.5 16.8
19:00 1010 29.83 840 24.81 -7.2 19 91 -8.5 16.6
19:05 1010 29.83 840 24.81 -7.2 19 90 -8.6 16.5
19:10 1010 29.83 840 24.81 -7.3 18.9 89 -8.7 16.3
19:15 1011 29.85 840 24.81 -7.3 18.9 90 -8.6 16.5
19:20 1011 29.85 840 24.81 -7.3 18.8 90 -8.6 16.4
19:25 1011 29.85 840 24.81 -7.4 18.7 89 -8.9 16
19:30 1011 29.85 840 24.81 -7.5 18.6 90 -8.8 16.1
19:35 1011 29.85 840 24.81 -7.4 18.7 90 -8.7 16.3
19:40 1011 29.85 840 24.81 -7.5 18.5 89 -9 15.8
19:45 1011 29.85 840 24.81 -7.5 18.4 90 -8.9 15.9
19:50 1011 29.85 840 24.81 -7.6 18.3 90 -9 15.9
19:55 1011 29.85 840 24.81 -7.6 18.3 90 -9 15.8
20:00 1011 29.85 840 24.81 -7.6 18.3 90 -9 15.7
20:05 1011 29.85 840 24.81 -7.7 18.1 90 -9.1 15.6
20:10 1011 29.85 840 24.81 -7.7 18.1 90 -9.1 15.7
20:15 1011 29.85 841 24.83 -7.8 18 90 -9.2 15.5
20:20 1011 29.85 841 24.83 -7.9 17.8 90 -9.3 15.3
20:25 1011 29.85 841 24.83 -7.9 17.8 90 -9.3 15.2
20:30 1011 29.85 841 24.83 -7.9 17.7 90 -9.2 15.4
20:35 1012 29.88 841 24.83 -8 17.6 91 -9.2 15.4
20:40 1012 29.88 841 24.83 -8 17.6 91 -9.2 15.4
20:45 1012 29.88 841 24.83 -8 17.6 90 -9.4 15.1
20:50 1012 29.88 841 24.83 -8 17.5 90 -9.4 15
20:55 1012 29.88 841 24.83 -8 17.5 90 -9.4 15.1
21:00 1012 29.88 841 24.83 -8.1 17.4 90 -9.5 15
21:05 1012 29.88 841 24.83 -8.1 17.5 90 -9.5 14.9
21:10 1012 29.88 841 24.83 -8.2 17.3 90 -9.5 15
21:15 1012 29.88 841 24.83 -8.1 17.4 90 -9.6 14.8
21:20 1012 29.88 841 24.83 -8.1 17.4 89 -9.6 14.7
21:25 1012 29.88 841 24.83 -8.1 17.4 89 -9.7 14.6
21:30 1012 29.88 842 24.86 -8.1 17.4 89 -9.6 14.7
21:35 1012 29.88 842 24.86 -8.2 17.3 89 -9.7 14.6
21:40 1012 29.88 842 24.86 -8.2 17.2 89 -9.7 14.6
21:45 1013 29.91 842 24.86 -8.2 17.2 89 -9.8 14.4
21:50 1013 29.91 842 24.86 -8.2 17.2 88 -9.8 14.4
21:55 1013 29.91 842 24.86 -8.2 17.2 88 -9.9 14.2
22:00 1013 29.91 842 24.86 -8.3 17.1 90 -9.7 14.6
22:05 1013 29.91 842 24.86 -8.3 17 90 -9.7 14.5
22:10 1013 29.91 842 24.86 -8.4 16.9 89 -9.9 14.2
22:15 1013 29.91 842 24.86 -8.4 16.9 89 -9.9 14.2
22:20 1013 29.91 842 24.86 -8.4 17 89 -9.9 14.1
22:25 1013 29.91 842 24.86 -8.4 17 89 -9.8 14.3
22:30 1013 29.91 842 24.86 -8.4 16.9 89 -9.9 14.1
22:35 1013 29.91 842 24.86 -8.4 16.8 89 -9.9 14.1
22:40 1013 29.91 842 24.86 -8.5 16.8 89 -9.9 14.2
22:45 1013 29.91 842 24.86 -8.5 16.7 89 -9.9 14.1
22:50 1013 29.91 842 24.86 -8.5 16.7 90 -9.9 14.1
22:55 1013 29.91 842 24.86 -8.5 16.8 90 -9.8 14.3
23:00 1013 29.91 842 24.86 -8.5 16.7 89 -10 14.1
23:05 1013 29.91 842 24.86 -8.5 16.7 89 -10 14.1
23:10 1013 29.91 842 24.86 -8.5 16.7 89 -10 14
23:15 1013 29.91 842 24.86 -8.5 16.7 90 -9.9 14.2
23:20 1013 29.91 842 24.86 -8.5 16.7 87 -10.2 13.6
23:25 1013 29.91 842 24.86 -8.5 16.7 87 -10.2 13.6
23:30 1013 29.91 842 24.86 -8.4 16.8 86 -10.3 13.4
23:35 1013 29.91 842 24.86 -8.5 16.6 88 -10.2 13.6
23:40 1013 29.91 842 24.86 -8.6 16.6 87 -10.3 13.5
23:45 1013 29.91 843 24.89 -8.6 16.5 88 -10.2 13.6
23:50 1013 29.91 843 24.89 -8.6 16.6 88 -10.2 13.7
23:55 1013 29.91 843 24.89 -8.5 16.6 87 -10.3 13.5
24:00 1013 29.91 843 24.89 -8.6 16.6 88 -10.3 13.5